Boardman, OR

10:43 AM PST on December 10, 2016 (GMT -0800)
| | Change Station

Elev -9999 ft 0.00 °N, 0.00 °E | Updated 1 minute ago

Partly Cloudy
Partly Cloudy
55 °F
Feels Like 55 °F
N
13
Wind Variable Wind from WSW
Gusts 19 mph

Today
High -- | Low -- °F
--% Chance of Precip.
Yesterday
High -- | Low -- °F
Precip. -- in
Pressure 30.03 in
Visibility 4.0 miles
Clouds Few 100 ft
Dew Point 36 °F
Humidity 48%
Rainfall --
Snow Depth Not available.
7:29 AM 4:14 PM
Waxing Gibbous, 85% visible
METAR KHRI 101753Z AUTO 13003KT 4SM BR FEW001 M06/M08 A3000 RMK AO2 SLP167 60000 I6000 T10611078 11044 21094 52012
Pressure 30.03 in
Visibility 4.0 miles
Clouds Few 100 ft
Dew Point 36 °F
Humidity 48%
Rainfall --
Snow Depth Not available.
7:29 AM 4:14 PM
Waxing Gibbous, 85% visible
METAR KHRI 101753Z AUTO 13003KT 4SM BR FEW001 M06/M08 A3000 RMK AO2 SLP167 60000 I6000 T10611078 11044 21094 52012

10-Day Weather Forecast

Almanac

Astronomy

Dec. 10, 2016 Rise Set
Actual Time
Civil Twilight
Nautical Twilight
Astronomical Twilight
Moon
Length of Visible Light
Length of Day
Tomorrow will be .
, % of the Moon is Illuminated

Today's Extremes

State Highs State Lows

Community

WunderPhotos

Upload Photos

1,956,619 photos uploaded!

WunderBlog® & News

Nearby

Air Quality

  Air Quality AQ Index Pollutant
Not available.

Snow Depth

Station Depth Elevation

Earthquake Activity

City Distance Mag. Time & Date
Minimum magnitude displayed is 2.5.

Coastal Water Temperatures

Place Temperature

Stations

Nearby Weather Stations

Station Location Temp. Windchill Dew Point Humidity Wind Precip. Elev Updated Type
                   

Watches & Warnings

There are currently no watches in effect.